sensor_id;sensor_type;location;lat;lon;timestamp;temperature;humidity
64034;SHT31;50280;49.864;8.638;2023-03-01T00:00:14;0.33;65.83
64034;SHT31;50280;49.864;8.638;2023-03-01T00:02:47;0.33;65.93
64034;SHT31;50280;49.864;8.638;2023-03-01T00:05:19;0.32;65.86
64034;SHT31;50280;49.864;8.638;2023-03-01T00:07:52;0.28;66.02
64034;SHT31;50280;49.864;8.638;2023-03-01T00:10:24;0.28;66.13
64034;SHT31;50280;49.864;8.638;2023-03-01T00:12:56;0.26;66.22
64034;SHT31;50280;49.864;8.638;2023-03-01T00:15:29;0.26;66.25
64034;SHT31;50280;49.864;8.638;2023-03-01T00:18:02;0.26;66.28
64034;SHT31;50280;49.864;8.638;2023-03-01T00:20:34;0.28;66.35
64034;SHT31;50280;49.864;8.638;2023-03-01T00:23:06;0.26;66.32
64034;SHT31;50280;49.864;8.638;2023-03-01T00:25:40;0.26;66.22
64034;SHT31;50280;49.864;8.638;2023-03-01T00:28:13;0.24;66.36
64034;SHT31;50280;49.864;8.638;2023-03-01T00:30:47;0.19;66.51
64034;SHT31;50280;49.864;8.638;2023-03-01T00:33:19;0.19;66.64
64034;SHT31;50280;49.864;8.638;2023-03-01T00:35:51;0.14;66.73
64034;SHT31;50280;49.864;8.638;2023-03-01T00:38:23;0.14;66.82
64034;SHT31;50280;49.864;8.638;2023-03-01T00:40:56;0.12;66.99
64034;SHT31;50280;49.864;8.638;2023-03-01T00:43:35;0.11;67.11
64034;SHT31;50280;49.864;8.638;2023-03-01T00:46:09;0.09;67.10
64034;SHT31;50280;49.864;8.638;2023-03-01T00:48:44;0.05;67.10
64034;SHT31;50280;49.864;8.638;2023-03-01T00:51:18;0.04;67.23
64034;SHT31;50280;49.864;8.638;2023-03-01T00:53:53;0.00;67.32
64034;SHT31;50280;49.864;8.638;2023-03-01T00:56:28;0.00;67.50
64034;SHT31;50280;49.864;8.638;2023-03-01T00:59:01;-0.03;67.66
64034;SHT31;50280;49.864;8.638;2023-03-01T01:01:35;-0.09;67.72
64034;SHT31;50280;49.864;8.638;2023-03-01T01:04:08;-0.13;67.91
64034;SHT31;50280;49.864;8.638;2023-03-01T01:06:43;-0.13;68.07
64034;SHT31;50280;49.864;8.638;2023-03-01T01:09:17;-0.16;68.03
64034;SHT31;50280;49.864;8.638;2023-03-01T01:11:50;-0.19;68.09
64034;SHT31;50280;49.864;8.638;2023-03-01T01:14:23;-0.20;68.24
64034;SHT31;50280;49.864;8.638;2023-03-01T01:16:56;-0.20;68.35
64034;SHT31;50280;49.864;8.638;2023-03-01T01:19:28;-0.21;68.37
64034;SHT31;50280;49.864;8.638;2023-03-01T01:22:01;-0.19;68.32
64034;SHT31;50280;49.864;8.638;2023-03-01T01:24:33;-0.20;68.31
64034;SHT31;50280;49.864;8.638;2023-03-01T01:27:05;-0.20;68.29
64034;SHT31;50280;49.864;8.638;2023-03-01T01:29:37;-0.19;68.48
64034;SHT31;50280;49.864;8.638;2023-03-01T01:32:11;-0.20;68.48
64034;SHT31;50280;49.864;8.638;2023-03-01T01:34:43;-0.20;68.63
64034;SHT31;50280;49.864;8.638;2023-03-01T01:37:15;-0.23;68.59
64034;SHT31;50280;49.864;8.638;2023-03-01T01:39:47;-0.21;68.69
64034;SHT31;50280;49.864;8.638;2023-03-01T01:42:19;-0.21;68.83
64034;SHT31;50280;49.864;8.638;2023-03-01T01:48:00;-0.23;68.74
64034;SHT31;50280;49.864;8.638;2023-03-01T01:50:38;-0.21;68.84
64034;SHT31;50280;49.864;8.638;2023-03-01T01:53:14;-0.23;68.90
64034;SHT31;50280;49.864;8.638;2023-03-01T01:55:51;-0.16;68.85
64034;SHT31;50280;49.864;8.638;2023-03-01T01:58:27;-0.16;68.78
64034;SHT31;50280;49.864;8.638;2023-03-01T02:01:02;-0.14;68.72
64034;SHT31;50280;49.864;8.638;2023-03-01T02:03:37;-0.13;68.81
64034;SHT31;50280;49.864;8.638;2023-03-01T02:06:17;-0.11;68.81
64034;SHT31;50280;49.864;8.638;2023-03-01T02:08:57;-0.13;68.81
64034;SHT31;50280;49.864;8.638;2023-03-01T02:11:36;-0.17;68.89
64034;SHT31;50280;49.864;8.638;2023-03-01T02:14:09;-0.19;69.03
64034;SHT31;50280;49.864;8.638;2023-03-01T02:16:42;-0.19;69.17
64034;SHT31;50280;49.864;8.638;2023-03-01T02:19:17;-0.21;69.17
64034;SHT31;50280;49.864;8.638;2023-03-01T02:22:10;-0.21;69.23
64034;SHT31;50280;49.864;8.638;2023-03-01T02:24:57;-0.24;69.15
64034;SHT31;50280;49.864;8.638;2023-03-01T02:27:49;-0.26;69.37
64034;SHT31;50280;49.864;8.638;2023-03-01T02:30:32;-0.24;69.37
64034;SHT31;50280;49.864;8.638;2023-03-01T02:33:05;-0.24;69.43
64034;SHT31;50280;49.864;8.638;2023-03-01T02:35:38;-0.26;69.30
64034;SHT31;50280;49.864;8.638;2023-03-01T02:38:11;-0.27;69.38
64034;SHT31;50280;49.864;8.638;2023-03-01T02:40:43;-0.26;69.43
64034;SHT31;50280;49.864;8.638;2023-03-01T02:43:16;-0.27;69.59
64034;SHT31;50280;49.864;8.638;2023-03-01T02:45:52;-0.28;69.54
64034;SHT31;50280;49.864;8.638;2023-03-01T02:48:37;-0.28;69.51
64034;SHT31;50280;49.864;8.638;2023-03-01T02:54:16;-0.31;69.74
64034;SHT31;50280;49.864;8.638;2023-03-01T02:56:56;-0.28;69.71
64034;SHT31;50280;49.864;8.638;2023-03-01T02:59:30;-0.27;69.59
64034;SHT31;50280;49.864;8.638;2023-03-01T03:02:17;-0.30;69.56
64034;SHT31;50280;49.864;8.638;2023-03-01T03:04:53;-0.30;69.67
64034;SHT31;50280;49.864;8.638;2023-03-01T03:07:25;-0.34;69.72
64034;SHT31;50280;49.864;8.638;2023-03-01T03:09:57;-0.33;69.94
64034;SHT31;50280;49.864;8.638;2023-03-01T03:12:29;-0.36;69.90
64034;SHT31;50280;49.864;8.638;2023-03-01T03:15:02;-0.37;70.05
64034;SHT31;50280;49.864;8.638;2023-03-01T03:17:37;-0.37;70.05
64034;SHT31;50280;49.864;8.638;2023-03-01T03:20:12;-0.34;70.04
64034;SHT31;50280;49.864;8.638;2023-03-01T03:22:49;-0.37;69.91
64034;SHT31;50280;49.864;8.638;2023-03-01T03:25:24;-0.36;69.98
64034;SHT31;50280;49.864;8.638;2023-03-01T03:27:59;-0.37;70.10
64034;SHT31;50280;49.864;8.638;2023-03-01T03:30:31;-0.36;70.02
64034;SHT31;50280;49.864;8.638;2023-03-01T03:33:05;-0.40;69.93
64034;SHT31;50280;49.864;8.638;2023-03-01T03:35:39;-0.40;70.13
64034;SHT31;50280;49.864;8.638;2023-03-01T03:38:15;-0.40;70.32
64034;SHT31;50280;49.864;8.638;2023-03-01T03:40:51;-0.38;70.40
64034;SHT31;50280;49.864;8.638;2023-03-01T03:43:33;-0.38;70.33
64034;SHT31;50280;49.864;8.638;2023-03-01T03:46:07;-0.40;70.37
64034;SHT31;50280;49.864;8.638;2023-03-01T03:48:41;-0.41;70.34
64034;SHT31;50280;49.864;8.638;2023-03-01T03:51:16;-0.40;70.41
64034;SHT31;50280;49.864;8.638;2023-03-01T03:53:49;-0.41;70.50
64034;SHT31;50280;49.864;8.638;2023-03-01T03:56:21;-0.41;70.54
64034;SHT31;50280;49.864;8.638;2023-03-01T03:58:54;-0.40;70.53
64034;SHT31;50280;49.864;8.638;2023-03-01T04:01:26;-0.40;70.73
64034;SHT31;50280;49.864;8.638;2023-03-01T04:03:59;-0.38;70.81
64034;SHT31;50280;49.864;8.638;2023-03-01T04:06:31;-0.37;70.73
64034;SHT31;50280;49.864;8.638;2023-03-01T04:09:03;-0.37;70.53
64034;SHT31;50280;49.864;8.638;2023-03-01T04:11:35;-0.38;70.50
64034;SHT31;50280;49.864;8.638;2023-03-01T04:14:07;-0.36;70.67
64034;SHT31;50280;49.864;8.638;2023-03-01T04:16:41;-0.37;70.48
64034;SHT31;50280;49.864;8.638;2023-03-01T04:19:14;-0.36;70.58
64034;SHT31;50280;49.864;8.638;2023-03-01T04:21:46;-0.37;70.66
64034;SHT31;50280;49.864;8.638;2023-03-01T04:24:18;-0.33;70.58
64034;SHT31;50280;49.864;8.638;2023-03-01T04:26:50;-0.34;70.53
64034;SHT31;50280;49.864;8.638;2023-03-01T04:29:22;-0.33;70.40
64034;SHT31;50280;49.864;8.638;2023-03-01T04:31:55;-0.28;70.31
64034;SHT31;50280;49.864;8.638;2023-03-01T04:34:28;-0.27;70.25
64034;SHT31;50280;49.864;8.638;2023-03-01T04:37:00;-0.28;70.31
64034;SHT31;50280;49.864;8.638;2023-03-01T04:39:32;-0.30;70.48
64034;SHT31;50280;49.864;8.638;2023-03-01T04:42:04;-0.28;70.30
64034;SHT31;50280;49.864;8.638;2023-03-01T04:44:37;-0.24;70.05
64034;SHT31;50280;49.864;8.638;2023-03-01T04:47:09;-0.24;70.11
64034;SHT31;50280;49.864;8.638;2023-03-01T04:49:43;-0.23;70.14
64034;SHT31;50280;49.864;8.638;2023-03-01T04:52:15;-0.21;70.03
64034;SHT31;50280;49.864;8.638;2023-03-01T04:54:47;-0.20;70.01
64034;SHT31;50280;49.864;8.638;2023-03-01T04:57:19;-0.23;70.15
64034;SHT31;50280;49.864;8.638;2023-03-01T04:59:51;-0.21;70.14
64034;SHT31;50280;49.864;8.638;2023-03-01T05:02:23;-0.23;70.23
64034;SHT31;50280;49.864;8.638;2023-03-01T05:04:57;-0.21;70.09
64034;SHT31;50280;49.864;8.638;2023-03-01T05:07:29;-0.24;70.10
64034;SHT31;50280;49.864;8.638;2023-03-01T05:10:01;-0.24;70.08
64034;SHT31;50280;49.864;8.638;2023-03-01T05:12:33;-0.23;69.98
64034;SHT31;50280;49.864;8.638;2023-03-01T05:15:05;-0.21;70.10
64034;SHT31;50280;49.864;8.638;2023-03-01T05:17:39;-0.21;70.12
64034;SHT31;50280;49.864;8.638;2023-03-01T05:20:12;-0.23;70.13
64034;SHT31;50280;49.864;8.638;2023-03-01T05:22:44;-0.23;69.99
64034;SHT31;50280;49.864;8.638;2023-03-01T05:25:17;-0.23;70.08
64034;SHT31;50280;49.864;8.638;2023-03-01T05:27:49;-0.26;70.14
64034;SHT31;50280;49.864;8.638;2023-03-01T05:30:22;-0.24;70.12
64034;SHT31;50280;49.864;8.638;2023-03-01T05:32:54;-0.27;70.09
64034;SHT31;50280;49.864;8.638;2023-03-01T05:35:27;-0.26;70.31
64034;SHT31;50280;49.864;8.638;2023-03-01T05:38:00;-0.23;70.42
64034;SHT31;50280;49.864;8.638;2023-03-01T05:40:32;-0.24;70.14
64034;SHT31;50280;49.864;8.638;2023-03-01T05:43:06;-0.23;70.00
64034;SHT31;50280;49.864;8.638;2023-03-01T05:45:38;-0.24;70.00
64034;SHT31;50280;49.864;8.638;2023-03-01T05:48:12;-0.21;69.87
64034;SHT31;50280;49.864;8.638;2023-03-01T05:50:46;-0.20;69.76
64034;SHT31;50280;49.864;8.638;2023-03-01T05:53:19;-0.16;69.71
64034;SHT31;50280;49.864;8.638;2023-03-01T05:55:52;-0.17;69.69
64034;SHT31;50280;49.864;8.638;2023-03-01T05:58:24;-0.14;69.59
64034;SHT31;50280;49.864;8.638;2023-03-01T06:00:56;-0.16;69.49
64034;SHT31;50280;49.864;8.638;2023-03-01T06:03:28;-0.16;69.46
64034;SHT31;50280;49.864;8.638;2023-03-01T06:06:01;-0.14;69.46
64034;SHT31;50280;49.864;8.638;2023-03-01T06:08:34;-0.14;69.64
64034;SHT31;50280;49.864;8.638;2023-03-01T06:11:06;-0.14;69.61
64034;SHT31;50280;49.864;8.638;2023-03-01T06:13:38;-0.17;69.54
64034;SHT31;50280;49.864;8.638;2023-03-01T06:16:10;-0.14;69.48
64034;SHT31;50280;49.864;8.638;2023-03-01T06:18:43;-0.11;69.45
64034;SHT31;50280;49.864;8.638;2023-03-01T06:21:16;-0.09;69.43
64034;SHT31;50280;49.864;8.638;2023-03-01T06:23:48;-0.07;69.32
64034;SHT31;50280;49.864;8.638;2023-03-01T06:26:20;-0.06;69.33
64034;SHT31;50280;49.864;8.638;2023-03-01T06:28:52;-0.06;69.39
64034;SHT31;50280;49.864;8.638;2023-03-01T06:31:24;-0.02;69.29
64034;SHT31;50280;49.864;8.638;2023-03-01T06:33:57;0.00;69.31
64034;SHT31;50280;49.864;8.638;2023-03-01T06:36:30;0.02;69.11
64034;SHT31;50280;49.864;8.638;2023-03-01T06:39:02;0.02;69.13
64034;SHT31;50280;49.864;8.638;2023-03-01T06:41:34;0.04;69.20
64034;SHT31;50280;49.864;8.638;2023-03-01T06:44:06;0.05;68.99
64034;SHT31;50280;49.864;8.638;2023-03-01T06:46:39;0.08;68.77
64034;SHT31;50280;49.864;8.638;2023-03-01T06:49:11;0.11;68.70
64034;SHT31;50280;49.864;8.638;2023-03-01T06:51:44;0.14;68.66
64034;SHT31;50280;49.864;8.638;2023-03-01T06:54:17;0.19;68.67
64034;SHT31;50280;49.864;8.638;2023-03-01T06:56:49;0.25;68.47
64034;SHT31;50280;49.864;8.638;2023-03-01T06:59:22;0.29;68.08
64034;SHT31;50280;49.864;8.638;2023-03-01T07:01:54;0.36;67.77
64034;SHT31;50280;49.864;8.638;2023-03-01T07:04:26;0.42;67.48
64034;SHT31;50280;49.864;8.638;2023-03-01T07:06:59;0.48;67.19
64034;SHT31;50280;49.864;8.638;2023-03-01T07:09:31;0.50;67.18
64034;SHT31;50280;49.864;8.638;2023-03-01T07:12:05;0.53;67.03
64034;SHT31;50280;49.864;8.638;2023-03-01T07:14:38;0.57;66.78
64034;SHT31;50280;49.864;8.638;2023-03-01T07:17:10;0.64;66.71
64034;SHT31;50280;49.864;8.638;2023-03-01T07:19:42;0.72;66.38
64034;SHT31;50280;49.864;8.638;2023-03-01T07:22:16;0.80;66.24
64034;SHT31;50280;49.864;8.638;2023-03-01T07:24:48;0.90;66.09
64034;SHT31;50280;49.864;8.638;2023-03-01T07:27:20;0.98;65.73
64034;SHT31;50280;49.864;8.638;2023-03-01T07:29:52;1.07;65.48
64034;SHT31;50280;49.864;8.638;2023-03-01T07:32:24;1.19;65.26
64034;SHT31;50280;49.864;8.638;2023-03-01T07:34:56;1.29;64.55
64034;SHT31;50280;49.864;8.638;2023-03-01T07:37:29;1.38;64.22
64034;SHT31;50280;49.864;8.638;2023-03-01T07:40:01;1.46;64.04
64034;SHT31;50280;49.864;8.638;2023-03-01T07:42:34;1.59;63.44
64034;SHT31;50280;49.864;8.638;2023-03-01T07:45:06;1.64;63.32
64034;SHT31;50280;49.864;8.638;2023-03-01T07:47:40;1.75;62.85
64034;SHT31;50280;49.864;8.638;2023-03-01T07:50:12;1.85;62.65
64034;SHT31;50280;49.864;8.638;2023-03-01T07:52:46;1.93;62.34
64034;SHT31;50280;49.864;8.638;2023-03-01T07:55:19;1.99;62.03
64034;SHT31;50280;49.864;8.638;2023-03-01T07:57:51;2.05;61.81
64034;SHT31;50280;49.864;8.638;2023-03-01T08:00:24;2.18;61.47
64034;SHT31;50280;49.864;8.638;2023-03-01T08:02:58;2.29;61.11
64034;SHT31;50280;49.864;8.638;2023-03-01T08:05:30;2.43;60.66
64034;SHT31;50280;49.864;8.638;2023-03-01T08:08:05;2.60;60.07
64034;SHT31;50280;49.864;8.638;2023-03-01T08:10:37;2.76;59.96
64034;SHT31;50280;49.864;8.638;2023-03-01T08:13:09;2.88;59.11
64034;SHT31;50280;49.864;8.638;2023-03-01T08:15:41;3.01;58.87
64034;SHT31;50280;49.864;8.638;2023-03-01T08:18:13;3.08;58.47
64034;SHT31;50280;49.864;8.638;2023-03-01T08:20:46;3.09;58.31
64034;SHT31;50280;49.864;8.638;2023-03-01T08:23:19;3.12;58.21
64034;SHT31;50280;49.864;8.638;2023-03-01T08:25:51;3.13;58.04
64034;SHT31;50280;49.864;8.638;2023-03-01T08:28:23;3.23;57.89
64034;SHT31;50280;49.864;8.638;2023-03-01T08:30:56;3.33;57.44
64034;SHT31;50280;49.864;8.638;2023-03-01T08:33:28;3.46;57.16
64034;SHT31;50280;49.864;8.638;2023-03-01T08:36:03;3.52;57.12
64034;SHT31;50280;49.864;8.638;2023-03-01T08:38:38;3.57;56.56
64034;SHT31;50280;49.864;8.638;2023-03-01T08:41:10;3.63;56.15
64034;SHT31;50280;49.864;8.638;2023-03-01T08:43:42;3.67;56.44
64034;SHT31;50280;49.864;8.638;2023-03-01T08:46:15;3.69;55.97
64034;SHT31;50280;49.864;8.638;2023-03-01T08:48:47;3.70;56.20
64034;SHT31;50280;49.864;8.638;2023-03-01T08:51:19;3.75;56.42
64034;SHT31;50280;49.864;8.638;2023-03-01T08:53:54;3.88;55.73
64034;SHT31;50280;49.864;8.638;2023-03-01T08:56:27;3.92;55.40
64034;SHT31;50280;49.864;8.638;2023-03-01T08:58:59;4.01;55.25
64034;SHT31;50280;49.864;8.638;2023-03-01T09:01:31;4.08;54.98
64034;SHT31;50280;49.864;8.638;2023-03-01T09:04:03;4.09;54.72
64034;SHT31;50280;49.864;8.638;2023-03-01T09:06:36;4.12;54.89
64034;SHT31;50280;49.864;8.638;2023-03-01T09:09:12;4.16;54.23
64034;SHT31;50280;49.864;8.638;2023-03-01T09:11:46;4.19;54.30
64034;SHT31;50280;49.864;8.638;2023-03-01T09:14:19;4.23;54.26
64034;SHT31;50280;49.864;8.638;2023-03-01T09:16:51;4.23;54.36
64034;SHT31;50280;49.864;8.638;2023-03-01T09:19:23;4.28;54.84
64034;SHT31;50280;49.864;8.638;2023-03-01T09:21:55;4.30;54.82
64034;SHT31;50280;49.864;8.638;2023-03-01T09:24:28;4.37;54.22
64034;SHT31;50280;49.864;8.638;2023-03-01T09:27:01;4.40;53.83
64034;SHT31;50280;49.864;8.638;2023-03-01T09:29:33;4.44;54.02
64034;SHT31;50280;49.864;8.638;2023-03-01T09:32:05;4.43;54.20
64034;SHT31;50280;49.864;8.638;2023-03-01T09:34:37;4.46;54.02
64034;SHT31;50280;49.864;8.638;2023-03-01T09:37:10;4.54;54.15
64034;SHT31;50280;49.864;8.638;2023-03-01T09:39:44;4.61;53.63
64034;SHT31;50280;49.864;8.638;2023-03-01T09:42:16;4.74;53.80
64034;SHT31;50280;49.864;8.638;2023-03-01T09:44:49;4.82;53.50
64034;SHT31;50280;49.864;8.638;2023-03-01T09:47:29;4.95;55.39
64034;SHT31;50280;49.864;8.638;2023-03-01T09:50:09;5.08;53.62
64034;SHT31;50280;49.864;8.638;2023-03-01T09:52:46;5.18;53.39
64034;SHT31;50280;49.864;8.638;2023-03-01T09:55:30;5.29;53.34
64034;SHT31;50280;49.864;8.638;2023-03-01T09:58:17;5.43;52.35
64034;SHT31;50280;49.864;8.638;2023-03-01T10:01:16;5.58;51.33
64034;SHT31;50280;49.864;8.638;2023-03-01T10:04:04;5.72;50.58
64034;SHT31;50280;49.864;8.638;2023-03-01T10:07:00;5.89;49.94
64034;SHT31;50280;49.864;8.638;2023-03-01T10:09:47;5.99;49.92
64034;SHT31;50280;49.864;8.638;2023-03-01T10:12:22;6.15;49.40
64034;SHT31;50280;49.864;8.638;2023-03-01T10:15:03;6.32;48.03
64034;SHT31;50280;49.864;8.638;2023-03-01T10:17:43;6.47;47.92
64034;SHT31;50280;49.864;8.638;2023-03-01T10:20:24;6.70;47.60
64034;SHT31;50280;49.864;8.638;2023-03-01T10:23:01;6.99;47.01
64034;SHT31;50280;49.864;8.638;2023-03-01T10:25:37;7.27;46.78
64034;SHT31;50280;49.864;8.638;2023-03-01T10:28:31;7.52;46.12
64034;SHT31;50280;49.864;8.638;2023-03-01T10:31:19;7.75;44.63
64034;SHT31;50280;49.864;8.638;2023-03-01T10:33:55;7.92;42.89
64034;SHT31;50280;49.864;8.638;2023-03-01T10:36:28;8.09;42.27
64034;SHT31;50280;49.864;8.638;2023-03-01T10:39:06;8.13;42.14
64034;SHT31;50280;49.864;8.638;2023-03-01T10:41:53;8.27;41.88
64034;SHT31;50280;49.864;8.638;2023-03-01T10:44:44;8.45;41.27
64034;SHT31;50280;49.864;8.638;2023-03-01T10:47:20;8.64;40.73
64034;SHT31;50280;49.864;8.638;2023-03-01T10:49:58;8.79;40.13
64034;SHT31;50280;49.864;8.638;2023-03-01T10:52:34;8.93;39.55
64034;SHT31;50280;49.864;8.638;2023-03-01T10:55:21;9.12;39.41
64034;SHT31;50280;49.864;8.638;2023-03-01T10:58:17;9.27;39.19
64034;SHT31;50280;49.864;8.638;2023-03-01T11:00:53;9.48;38.41
64034;SHT31;50280;49.864;8.638;2023-03-01T11:03:28;9.65;38.69
64034;SHT31;50280;49.864;8.638;2023-03-01T11:06:04;9.82;37.30
64034;SHT31;50280;49.864;8.638;2023-03-01T11:08:51;10.04;36.71
64034;SHT31;50280;49.864;8.638;2023-03-01T11:11:29;10.18;36.66
64034;SHT31;50280;49.864;8.638;2023-03-01T11:14:06;10.31;36.94
64034;SHT31;50280;49.864;8.638;2023-03-01T11:16:48;10.52;36.65
64034;SHT31;50280;49.864;8.638;2023-03-01T11:19:31;10.73;35.96
64034;SHT31;50280;49.864;8.638;2023-03-01T11:22:05;10.91;35.32
64034;SHT31;50280;49.864;8.638;2023-03-01T11:24:46;11.07;34.60
64034;SHT31;50280;49.864;8.638;2023-03-01T11:27:21;11.12;34.55
64034;SHT31;50280;49.864;8.638;2023-03-01T11:29:58;11.27;33.99
64034;SHT31;50280;49.864;8.638;2023-03-01T11:32:40;11.35;33.50
64034;SHT31;50280;49.864;8.638;2023-03-01T11:35:20;11.38;33.18
64034;SHT31;50280;49.864;8.638;2023-03-01T11:37:59;11.38;34.04
64034;SHT31;50280;49.864;8.638;2023-03-01T11:40:49;11.42;35.24
64034;SHT31;50280;49.864;8.638;2023-03-01T11:43:32;11.62;34.20
64034;SHT31;50280;49.864;8.638;2023-03-01T11:46:29;11.74;33.79
64034;SHT31;50280;49.864;8.638;2023-03-01T11:49:35;12.02;34.59
64034;SHT31;50280;49.864;8.638;2023-03-01T11:52:35;12.34;33.05
64034;SHT31;50280;49.864;8.638;2023-03-01T11:55:29;12.40;32.92
64034;SHT31;50280;49.864;8.638;2023-03-01T11:58:22;12.45;33.42
64034;SHT31;50280;49.864;8.638;2023-03-01T12:01:12;12.56;33.31
64034;SHT31;50280;49.864;8.638;2023-03-01T12:04:11;12.66;32.91
64034;SHT31;50280;49.864;8.638;2023-03-01T12:07:30;12.65;32.57
64034;SHT31;50280;49.864;8.638;2023-03-01T12:10:23;12.71;32.81
64034;SHT31;50280;49.864;8.638;2023-03-01T12:16:30;12.73;33.07
64034;SHT31;50280;49.864;8.638;2023-03-01T12:19:33;12.89;31.74
64034;SHT31;50280;49.864;8.638;2023-03-01T12:22:31;12.89;32.15
64034;SHT31;50280;49.864;8.638;2023-03-01T12:25:14;12.88;32.09
64034;SHT31;50280;49.864;8.638;2023-03-01T12:27:56;12.95;32.31
64034;SHT31;50280;49.864;8.638;2023-03-01T12:31:19;13.10;31.88
64034;SHT31;50280;49.864;8.638;2023-03-01T12:34:34;13.33;31.49
64034;SHT31;50280;49.864;8.638;2023-03-01T12:37:28;13.36;30.83
64034;SHT31;50280;49.864;8.638;2023-03-01T12:40:28;13.48;30.67
64034;SHT31;50280;49.864;8.638;2023-03-01T12:43:28;13.69;31.02
64034;SHT31;50280;49.864;8.638;2023-03-01T12:46:20;13.81;29.68
64034;SHT31;50280;49.864;8.638;2023-03-01T12:49:10;13.68;29.92
64034;SHT31;50280;49.864;8.638;2023-03-01T12:51:50;13.66;30.37
64034;SHT31;50280;49.864;8.638;2023-03-01T12:54:33;13.78;29.35
64034;SHT31;50280;49.864;8.638;2023-03-01T12:57:09;13.82;29.27
64034;SHT31;50280;49.864;8.638;2023-03-01T13:00:00;13.90;29.49
64034;SHT31;50280;49.864;8.638;2023-03-01T13:03:00;14.02;29.03
64034;SHT31;50280;49.864;8.638;2023-03-01T13:05:59;13.99;29.07
64034;SHT31;50280;49.864;8.638;2023-03-01T13:08:41;14.10;28.86
64034;SHT31;50280;49.864;8.638;2023-03-01T13:11:24;14.02;28.52
64034;SHT31;50280;49.864;8.638;2023-03-01T13:20:16;13.96;29.07
64034;SHT31;50280;49.864;8.638;2023-03-01T13:23:00;13.95;28.53
64034;SHT31;50280;49.864;8.638;2023-03-01T13:28:52;13.75;29.52
64034;SHT31;50280;49.864;8.638;2023-03-01T13:37:30;13.65;29.96
64034;SHT31;50280;49.864;8.638;2023-03-01T13:43:31;13.86;29.45
64034;SHT31;50280;49.864;8.638;2023-03-01T13:46:09;13.95;29.22
64034;SHT31;50280;49.864;8.638;2023-03-01T13:48:50;14.07;28.88
64034;SHT31;50280;49.864;8.638;2023-03-01T13:51:23;14.13;28.59
64034;SHT31;50280;49.864;8.638;2023-03-01T13:53:59;14.03;28.61
64034;SHT31;50280;49.864;8.638;2023-03-01T13:56:33;13.92;29.05
64034;SHT31;50280;49.864;8.638;2023-03-01T13:59:13;13.81;29.31
64034;SHT31;50280;49.864;8.638;2023-03-01T14:01:53;13.78;29.57
64034;SHT31;50280;49.864;8.638;2023-03-01T14:04:29;13.82;29.20
64034;SHT31;50280;49.864;8.638;2023-03-01T14:07:10;13.86;29.05
64034;SHT31;50280;49.864;8.638;2023-03-01T14:09:45;13.98;29.19
64034;SHT31;50280;49.864;8.638;2023-03-01T14:12:26;14.00;29.04
64034;SHT31;50280;49.864;8.638;2023-03-01T14:15:17;14.10;28.77
64034;SHT31;50280;49.864;8.638;2023-03-01T14:18:01;14.12;28.96
64034;SHT31;50280;49.864;8.638;2023-03-01T14:20:42;14.10;28.68
64034;SHT31;50280;49.864;8.638;2023-03-01T14:23:17;13.90;28.85
64034;SHT31;50280;49.864;8.638;2023-03-01T14:25:53;13.61;29.44
64034;SHT31;50280;49.864;8.638;2023-03-01T14:28:28;13.48;29.52
64034;SHT31;50280;49.864;8.638;2023-03-01T14:31:03;13.54;29.71
64034;SHT31;50280;49.864;8.638;2023-03-01T14:34:16;13.75;29.47
64034;SHT31;50280;49.864;8.638;2023-03-01T14:36:52;13.95;29.23
64034;SHT31;50280;49.864;8.638;2023-03-01T14:39:24;14.12;28.97
64034;SHT31;50280;49.864;8.638;2023-03-01T14:41:57;14.02;31.26
64034;SHT31;50280;49.864;8.638;2023-03-01T14:44:30;13.93;30.79
64034;SHT31;50280;49.864;8.638;2023-03-01T14:47:02;13.90;30.55
64034;SHT31;50280;49.864;8.638;2023-03-01T14:49:37;13.72;30.87
64034;SHT31;50280;49.864;8.638;2023-03-01T14:52:17;13.59;31.15
64034;SHT31;50280;49.864;8.638;2023-03-01T14:54:53;13.59;30.94
64034;SHT31;50280;49.864;8.638;2023-03-01T14:57:26;13.55;31.01
64034;SHT31;50280;49.864;8.638;2023-03-01T14:59:59;13.50;31.67
64034;SHT31;50280;49.864;8.638;2023-03-01T15:02:35;13.48;31.01
64034;SHT31;50280;49.864;8.638;2023-03-01T15:05:10;13.44;30.82
64034;SHT31;50280;49.864;8.638;2023-03-01T15:07:46;13.34;31.26
64034;SHT31;50280;49.864;8.638;2023-03-01T15:10:19;13.20;31.36
64034;SHT31;50280;49.864;8.638;2023-03-01T15:12:54;13.06;32.10
64034;SHT31;50280;49.864;8.638;2023-03-01T15:15:35;13.06;31.49
64034;SHT31;50280;49.864;8.638;2023-03-01T15:18:16;13.03;31.53
64034;SHT31;50280;49.864;8.638;2023-03-01T15:20:53;12.99;31.56
64034;SHT31;50280;49.864;8.638;2023-03-01T15:23:26;13.04;31.43
64034;SHT31;50280;49.864;8.638;2023-03-01T15:26:01;12.99;31.66
64034;SHT31;50280;49.864;8.638;2023-03-01T15:28:34;13.03;31.73
64034;SHT31;50280;49.864;8.638;2023-03-01T15:31:16;13.14;31.49
64034;SHT31;50280;49.864;8.638;2023-03-01T15:34:07;13.10;31.37
64034;SHT31;50280;49.864;8.638;2023-03-01T15:36:44;13.04;31.78
64034;SHT31;50280;49.864;8.638;2023-03-01T15:39:30;13.03;32.07
64034;SHT31;50280;49.864;8.638;2023-03-01T15:42:10;12.93;31.75
64034;SHT31;50280;49.864;8.638;2023-03-01T15:44:44;12.72;32.09
64034;SHT31;50280;49.864;8.638;2023-03-01T15:47:24;12.66;32.32
64034;SHT31;50280;49.864;8.638;2023-03-01T15:50:00;12.56;32.24
64034;SHT31;50280;49.864;8.638;2023-03-01T15:52:35;12.27;32.91
64034;SHT31;50280;49.864;8.638;2023-03-01T15:55:17;11.99;33.40
64034;SHT31;50280;49.864;8.638;2023-03-01T15:57:57;11.78;33.95
64034;SHT31;50280;49.864;8.638;2023-03-01T16:00:31;11.71;34.07
64034;SHT31;50280;49.864;8.638;2023-03-01T16:03:03;11.68;34.22
64034;SHT31;50280;49.864;8.638;2023-03-01T16:05:36;11.69;34.46
64034;SHT31;50280;49.864;8.638;2023-03-01T16:08:10;11.64;34.46
64034;SHT31;50280;49.864;8.638;2023-03-01T16:10:42;11.57;34.51
64034;SHT31;50280;49.864;8.638;2023-03-01T16:13:15;11.40;34.71
64034;SHT31;50280;49.864;8.638;2023-03-01T16:15:47;11.20;34.95
64034;SHT31;50280;49.864;8.638;2023-03-01T16:18:19;11.02;35.45
64034;SHT31;50280;49.864;8.638;2023-03-01T16:20:51;10.89;35.70
64034;SHT31;50280;49.864;8.638;2023-03-01T16:23:24;10.66;36.10
64034;SHT31;50280;49.864;8.638;2023-03-01T16:25:58;10.41;36.88
64034;SHT31;50280;49.864;8.638;2023-03-01T16:28:31;10.21;37.33
64034;SHT31;50280;49.864;8.638;2023-03-01T16:31:03;10.02;38.07
64034;SHT31;50280;49.864;8.638;2023-03-01T16:33:35;9.85;38.38
64034;SHT31;50280;49.864;8.638;2023-03-01T16:36:08;9.67;38.62
64034;SHT31;50280;49.864;8.638;2023-03-01T16:38:44;9.45;39.36
64034;SHT31;50280;49.864;8.638;2023-03-01T16:41:18;9.19;39.74
64034;SHT31;50280;49.864;8.638;2023-03-01T16:43:53;8.93;40.35
64034;SHT31;50280;49.864;8.638;2023-03-01T16:46:27;8.71;40.84
64034;SHT31;50280;49.864;8.638;2023-03-01T16:49:00;8.54;41.60
64034;SHT31;50280;49.864;8.638;2023-03-01T16:51:32;8.38;41.99
64034;SHT31;50280;49.864;8.638;2023-03-01T16:54:05;8.23;42.32
64034;SHT31;50280;49.864;8.638;2023-03-01T16:56:38;8.10;42.75
64034;SHT31;50280;49.864;8.638;2023-03-01T16:59:10;7.99;43.09
64034;SHT31;50280;49.864;8.638;2023-03-01T17:01:42;7.92;43.37
64034;SHT31;50280;49.864;8.638;2023-03-01T17:04:14;7.81;44.02